sensor_id;sensor_type;location;lat;lon;timestamp;pressure;altitude;pressure_sealevel;temperature;humidity
12215;BME280;6170;42.206;24.142;2023-01-25T00:00:28;100264.81;;;2.12;100.00
12215;BME280;6170;42.206;24.142;2023-01-25T00:02:56;100320.09;;;2.62;99.68
12215;BME280;6170;42.206;24.142;2023-01-25T00:05:23;100268.59;;;2.20;99.11
12215;BME280;6170;42.206;24.142;2023-01-25T00:07:50;100318.59;;;2.47;98.76
12215;BME280;6170;42.206;24.142;2023-01-25T00:10:18;100276.28;;;2.23;98.87
12215;BME280;6170;42.206;24.142;2023-01-25T00:12:45;100323.50;;;2.41;98.89
12215;BME280;6170;42.206;24.142;2023-01-25T00:15:12;100274.66;;;2.10;98.76
12215;BME280;6170;42.206;24.142;2023-01-25T00:17:41;100284.00;;;2.03;98.35
12215;BME280;6170;42.206;24.142;2023-01-25T00:20:09;100333.06;;;2.31;98.05
12215;BME280;6170;42.206;24.142;2023-01-25T00:22:36;100280.22;;;2.18;98.05
12215;BME280;6170;42.206;24.142;2023-01-25T00:25:04;100326.06;;;2.53;98.32
12215;BME280;6170;42.206;24.142;2023-01-25T00:27:31;100282.09;;;2.29;97.70
12215;BME280;6170;42.206;24.142;2023-01-25T00:29:58;100283.44;;;2.10;97.77
12215;BME280;6170;42.206;24.142;2023-01-25T00:32:39;100334.13;;;2.28;98.91
12215;BME280;6170;42.206;24.142;2023-01-25T00:35:11;100272.00;;;2.10;98.56
12215;BME280;6170;42.206;24.142;2023-01-25T00:37:41;100340.00;;;2.20;98.13
12215;BME280;6170;42.206;24.142;2023-01-25T00:40:10;100288.75;;;2.21;98.45
12215;BME280;6170;42.206;24.142;2023-01-25T00:42:39;100286.41;;;2.06;97.99
12215;BME280;6170;42.206;24.142;2023-01-25T00:45:08;100283.34;;;1.99;98.73
12215;BME280;6170;42.206;24.142;2023-01-25T00:47:36;100287.25;;;2.06;98.77
12215;BME280;6170;42.206;24.142;2023-01-25T00:50:04;100335.94;;;2.51;98.31
12215;BME280;6170;42.206;24.142;2023-01-25T00:52:33;100329.06;;;2.49;98.22
12215;BME280;6170;42.206;24.142;2023-01-25T00:55:00;100282.19;;;2.27;98.16
12215;BME280;6170;42.206;24.142;2023-01-25T00:57:28;100281.22;;;2.28;98.35
12215;BME280;6170;42.206;24.142;2023-01-25T00:59:55;100262.63;;;2.06;98.58
12215;BME280;6170;42.206;24.142;2023-01-25T01:02:22;100268.75;;;2.06;98.55
12215;BME280;6170;42.206;24.142;2023-01-25T01:04:49;100316.97;;;2.34;99.19
12215;BME280;6170;42.206;24.142;2023-01-25T01:07:16;100272.63;;;1.90;99.44
12215;BME280;6170;42.206;24.142;2023-01-25T01:09:45;100268.91;;;1.92;99.65
12215;BME280;6170;42.206;24.142;2023-01-25T01:12:12;100264.94;;;2.10;99.73
12215;BME280;6170;42.206;24.142;2023-01-25T01:14:39;100268.19;;;1.77;99.96
12215;BME280;6170;42.206;24.142;2023-01-25T01:17:06;100260.13;;;1.55;100.00
12215;BME280;6170;42.206;24.142;2023-01-25T01:19:33;100265.25;;;1.46;99.97
12215;BME280;6170;42.206;24.142;2023-01-25T01:22:00;100250.63;;;1.53;99.82
12215;BME280;6170;42.206;24.142;2023-01-25T01:24:27;100312.69;;;1.84;99.61
12215;BME280;6170;42.206;24.142;2023-01-25T01:26:56;100263.63;;;1.56;99.69
12215;BME280;6170;42.206;24.142;2023-01-25T01:29:23;100256.97;;;1.63;99.85
12215;BME280;6170;42.206;24.142;2023-01-25T01:31:50;100311.94;;;1.94;99.92
12215;BME280;6170;42.206;24.142;2023-01-25T01:34:18;100261.44;;;1.50;100.00
12215;BME280;6170;42.206;24.142;2023-01-25T01:36:46;100258.13;;;1.59;100.00
12215;BME280;6170;42.206;24.142;2023-01-25T01:39:13;100260.78;;;1.59;100.00
12215;BME280;6170;42.206;24.142;2023-01-25T01:41:40;100264.78;;;1.52;100.00
12215;BME280;6170;42.206;24.142;2023-01-25T01:44:15;100266.47;;;1.53;100.00
12215;BME280;6170;42.206;24.142;2023-01-25T01:46:45;100251.81;;;1.49;100.00
12215;BME280;6170;42.206;24.142;2023-01-25T01:49:16;100267.06;;;1.69;100.00
12215;BME280;6170;42.206;24.142;2023-01-25T01:51:47;100273.00;;;1.60;100.00
12215;BME280;6170;42.206;24.142;2023-01-25T01:54:18;100258.88;;;1.48;100.00
12215;BME280;6170;42.206;24.142;2023-01-25T01:56:52;100300.56;;;1.81;100.00
12215;BME280;6170;42.206;24.142;2023-01-25T01:59:24;100316.75;;;1.76;100.00
12215;BME280;6170;42.206;24.142;2023-01-25T02:01:54;100256.06;;;1.75;100.00
12215;BME280;6170;42.206;24.142;2023-01-25T02:04:23;100268.72;;;1.83;100.00
12215;BME280;6170;42.206;24.142;2023-01-25T02:06:54;100265.06;;;1.72;100.00
12215;BME280;6170;42.206;24.142;2023-01-25T02:09:25;100267.38;;;1.77;100.00
12215;BME280;6170;42.206;24.142;2023-01-25T02:11:55;100271.91;;;1.75;99.54
12215;BME280;6170;42.206;24.142;2023-01-25T02:14:26;100263.47;;;1.70;99.98
12215;BME280;6170;42.206;24.142;2023-01-25T02:16:54;100269.00;;;1.67;100.00
12215;BME280;6170;42.206;24.142;2023-01-25T02:19:31;100261.88;;;1.80;100.00
12215;BME280;6170;42.206;24.142;2023-01-25T02:22:03;100247.56;;;1.46;99.95
12215;BME280;6170;42.206;24.142;2023-01-25T02:24:34;100309.50;;;1.91;99.94
12215;BME280;6170;42.206;24.142;2023-01-25T02:27:06;100270.66;;;1.80;100.00
12215;BME280;6170;42.206;24.142;2023-01-25T02:29:34;100266.63;;;1.75;100.00
12215;BME280;6170;42.206;24.142;2023-01-25T02:32:03;100275.03;;;1.93;99.76
12215;BME280;6170;42.206;24.142;2023-01-25T02:34:31;100260.41;;;2.00;99.14
12215;BME280;6170;42.206;24.142;2023-01-25T02:36:58;100269.75;;;1.93;99.46
12215;BME280;6170;42.206;24.142;2023-01-25T02:39:26;100268.00;;;1.80;99.08
12215;BME280;6170;42.206;24.142;2023-01-25T02:41:54;100257.56;;;2.03;98.98
12215;BME280;6170;42.206;24.142;2023-01-25T02:44:24;100262.09;;;2.01;98.56
12215;BME280;6170;42.206;24.142;2023-01-25T02:46:52;100306.03;;;2.14;98.34
12215;BME280;6170;42.206;24.142;2023-01-25T02:49:20;100261.16;;;2.02;98.86
12215;BME280;6170;42.206;24.142;2023-01-25T02:51:49;100307.69;;;2.28;98.18
12215;BME280;6170;42.206;24.142;2023-01-25T02:54:17;100263.97;;;2.11;98.58
12215;BME280;6170;42.206;24.142;2023-01-25T02:56:45;100258.06;;;2.08;97.92
12215;BME280;6170;42.206;24.142;2023-01-25T02:59:12;100305.19;;;2.14;97.98
12215;BME280;6170;42.206;24.142;2023-01-25T03:01:41;100273.09;;;1.71;98.68
12215;BME280;6170;42.206;24.142;2023-01-25T03:04:09;100265.50;;;1.66;98.74
12215;BME280;6170;42.206;24.142;2023-01-25T03:06:37;100263.97;;;1.39;99.88
12215;BME280;6170;42.206;24.142;2023-01-25T03:09:06;100268.31;;;1.40;100.00
12215;BME280;6170;42.206;24.142;2023-01-25T03:11:34;100259.72;;;1.49;100.00
12215;BME280;6170;42.206;24.142;2023-01-25T03:14:01;100278.09;;;1.63;100.00
12215;BME280;6170;42.206;24.142;2023-01-25T03:16:29;100270.88;;;1.65;100.00
12215;BME280;6170;42.206;24.142;2023-01-25T03:18:58;100273.09;;;1.71;100.00
12215;BME280;6170;42.206;24.142;2023-01-25T03:21:25;100268.00;;;1.80;99.56
12215;BME280;6170;42.206;24.142;2023-01-25T03:23:57;100272.25;;;1.70;99.35
12215;BME280;6170;42.206;24.142;2023-01-25T03:26:26;100321.22;;;2.00;99.52
12215;BME280;6170;42.206;24.142;2023-01-25T03:28:54;100262.81;;;1.79;99.79
12215;BME280;6170;42.206;24.142;2023-01-25T03:31:21;100260.78;;;1.59;99.79
12215;BME280;6170;42.206;24.142;2023-01-25T03:33:48;100265.56;;;1.28;99.92
12215;BME280;6170;42.206;24.142;2023-01-25T03:36:16;100260.97;;;1.56;100.00
12215;BME280;6170;42.206;24.142;2023-01-25T03:38:43;100306.06;;;1.78;99.87
12215;BME280;6170;42.206;24.142;2023-01-25T03:41:10;100260.34;;;1.52;99.68
12215;BME280;6170;42.206;24.142;2023-01-25T03:43:38;100308.25;;;1.84;99.97
12215;BME280;6170;42.206;24.142;2023-01-25T03:46:05;100268.69;;;1.59;99.80
12215;BME280;6170;42.206;24.142;2023-01-25T03:48:33;100315.97;;;1.87;99.88
12215;BME280;6170;42.206;24.142;2023-01-25T03:51:00;100254.84;;;1.55;99.53
12215;BME280;6170;42.206;24.142;2023-01-25T03:53:29;100254.34;;;1.50;99.41
12215;BME280;6170;42.206;24.142;2023-01-25T03:55:58;100260.97;;;1.56;100.00
12215;BME280;6170;42.206;24.142;2023-01-25T03:58:27;100255.38;;;1.60;100.00
12215;BME280;6170;42.206;24.142;2023-01-25T04:00:55;100260.56;;;1.49;99.99
12215;BME280;6170;42.206;24.142;2023-01-25T04:03:22;100262.91;;;1.54;100.00
12215;BME280;6170;42.206;24.142;2023-01-25T04:05:50;100323.00;;;1.99;99.92
12215;BME280;6170;42.206;24.142;2023-01-25T04:08:17;100321.19;;;2.12;99.66
12215;BME280;6170;42.206;24.142;2023-01-25T04:10:50;100311.81;;;1.96;99.66
12215;BME280;6170;42.206;24.142;2023-01-25T04:13:18;100276.69;;;1.70;99.41
12215;BME280;6170;42.206;24.142;2023-01-25T04:15:46;100273.00;;;1.72;99.37
12215;BME280;6170;42.206;24.142;2023-01-25T04:18:13;100265.88;;;1.73;99.50
12215;BME280;6170;42.206;24.142;2023-01-25T04:20:41;100264.38;;;1.81;99.57
12215;BME280;6170;42.206;24.142;2023-01-25T04:23:08;100265.41;;;1.55;99.66
12215;BME280;6170;42.206;24.142;2023-01-25T04:25:36;100260.84;;;1.70;99.94
12215;BME280;6170;42.206;24.142;2023-01-25T04:28:05;100309.78;;;1.99;99.78
12215;BME280;6170;42.206;24.142;2023-01-25T04:30:32;100248.09;;;1.51;99.52
12215;BME280;6170;42.206;24.142;2023-01-25T04:33:02;100264.13;;;1.61;99.80
12215;BME280;6170;42.206;24.142;2023-01-25T04:35:30;100315.28;;;1.72;99.84
12215;BME280;6170;42.206;24.142;2023-01-25T04:37:58;100297.59;;;1.73;100.00
12215;BME280;6170;42.206;24.142;2023-01-25T04:40:27;100313.94;;;1.91;99.95
12215;BME280;6170;42.206;24.142;2023-01-25T04:42:54;100282.31;;;1.65;99.54
12215;BME280;6170;42.206;24.142;2023-01-25T04:45:23;100273.97;;;1.59;99.42
12215;BME280;6170;42.206;24.142;2023-01-25T04:47:55;100273.66;;;1.63;99.49
12215;BME280;6170;42.206;24.142;2023-01-25T04:50:22;100275.41;;;1.75;99.60
12215;BME280;6170;42.206;24.142;2023-01-25T04:52:50;100319.69;;;2.08;98.43
12215;BME280;6170;42.206;24.142;2023-01-25T04:55:16;100274.84;;;1.83;97.97
12215;BME280;6170;42.206;24.142;2023-01-25T04:57:43;100273.16;;;1.82;97.80
12215;BME280;6170;42.206;24.142;2023-01-25T05:00:11;100275.69;;;1.84;97.82
12215;BME280;6170;42.206;24.142;2023-01-25T05:02:39;100323.38;;;2.18;97.43
12215;BME280;6170;42.206;24.142;2023-01-25T05:05:07;100281.66;;;1.74;97.54
12215;BME280;6170;42.206;24.142;2023-01-25T05:07:34;100280.13;;;1.83;97.65
12215;BME280;6170;42.206;24.142;2023-01-25T05:10:01;100319.84;;;2.07;97.91
12215;BME280;6170;42.206;24.142;2023-01-25T05:12:28;100274.84;;;1.83;97.98
12215;BME280;6170;42.206;24.142;2023-01-25T05:14:55;100277.22;;;1.75;98.23
12215;BME280;6170;42.206;24.142;2023-01-25T05:17:22;100319.03;;;2.17;98.01
12215;BME280;6170;42.206;24.142;2023-01-25T05:19:50;100268.88;;;1.68;98.27
12215;BME280;6170;42.206;24.142;2023-01-25T05:22:18;100281.16;;;1.57;97.91
12215;BME280;6170;42.206;24.142;2023-01-25T05:24:46;100279.00;;;1.74;97.80
12215;BME280;6170;42.206;24.142;2023-01-25T05:27:15;100329.00;;;2.14;97.70
12215;BME280;6170;42.206;24.142;2023-01-25T05:29:43;100318.00;;;1.84;98.02
12215;BME280;6170;42.206;24.142;2023-01-25T05:32:12;100316.09;;;1.86;98.30
12215;BME280;6170;42.206;24.142;2023-01-25T05:34:39;100279.00;;;1.74;98.20
12215;BME280;6170;42.206;24.142;2023-01-25T05:37:10;100285.03;;;1.76;97.97
12215;BME280;6170;42.206;24.142;2023-01-25T05:39:38;100293.88;;;1.88;97.61
12215;BME280;6170;42.206;24.142;2023-01-25T05:42:09;100338.28;;;2.19;97.59
12215;BME280;6170;42.206;24.142;2023-01-25T05:44:36;100267.00;;;1.94;96.95
12215;BME280;6170;42.206;24.142;2023-01-25T05:47:03;100324.97;;;2.21;96.56
12215;BME280;6170;42.206;24.142;2023-01-25T05:49:29;100306.53;;;1.96;96.33
12215;BME280;6170;42.206;24.142;2023-01-25T05:51:56;100313.78;;;2.05;97.26
12215;BME280;6170;42.206;24.142;2023-01-25T05:54:25;100296.03;;;2.07;96.92
12215;BME280;6170;42.206;24.142;2023-01-25T05:56:52;100342.91;;;2.29;96.70
12215;BME280;6170;42.206;24.142;2023-01-25T05:59:19;100294.56;;;2.03;96.61
12215;BME280;6170;42.206;24.142;2023-01-25T06:01:46;100292.88;;;2.02;96.87
12215;BME280;6170;42.206;24.142;2023-01-25T06:04:14;100267.38;;;1.77;96.70
12215;BME280;6170;42.206;24.142;2023-01-25T06:06:41;100279.28;;;1.59;97.57
12215;BME280;6170;42.206;24.142;2023-01-25T06:09:09;100336.69;;;1.93;97.83
12215;BME280;6170;42.206;24.142;2023-01-25T06:11:38;100274.13;;;1.45;97.65
12215;BME280;6170;42.206;24.142;2023-01-25T06:14:05;100287.34;;;1.68;97.56
12215;BME280;6170;42.206;24.142;2023-01-25T06:16:32;100286.03;;;1.63;98.19
12215;BME280;6170;42.206;24.142;2023-01-25T06:18:59;100332.47;;;1.78;98.59
12215;BME280;6170;42.206;24.142;2023-01-25T06:21:25;100288.75;;;1.61;99.11
12215;BME280;6170;42.206;24.142;2023-01-25T06:23:53;100295.38;;;1.79;98.60
12215;BME280;6170;42.206;24.142;2023-01-25T06:26:20;100337.81;;;2.02;98.66
12215;BME280;6170;42.206;24.142;2023-01-25T06:28:48;100282.44;;;1.51;98.45
12215;BME280;6170;42.206;24.142;2023-01-25T06:31:16;100289.72;;;1.48;98.96
12215;BME280;6170;42.206;24.142;2023-01-25T06:33:47;100332.06;;;1.84;99.25
12215;BME280;6170;42.206;24.142;2023-01-25T06:36:16;100293.44;;;1.45;99.24
12215;BME280;6170;42.206;24.142;2023-01-25T06:38:47;100292.47;;;1.46;99.57
12215;BME280;6170;42.206;24.142;2023-01-25T06:41:14;100281.06;;;1.58;99.96
12215;BME280;6170;42.206;24.142;2023-01-25T06:43:41;100338.66;;;2.02;99.95
12215;BME280;6170;42.206;24.142;2023-01-25T06:46:09;100289.50;;;1.63;99.53
12215;BME280;6170;42.206;24.142;2023-01-25T06:48:37;100339.56;;;1.90;99.73
12215;BME280;6170;42.206;24.142;2023-01-25T06:51:06;100251.41;;;1.29;99.33
12215;BME280;6170;42.206;24.142;2023-01-25T06:53:35;100295.53;;;1.53;99.45
12215;BME280;6170;42.206;24.142;2023-01-25T06:56:06;100297.56;;;1.49;99.39
12215;BME280;6170;42.206;24.142;2023-01-25T06:58:34;100311.81;;;1.59;99.04
12215;BME280;6170;42.206;24.142;2023-01-25T07:01:02;100298.09;;;1.54;98.75
12215;BME280;6170;42.206;24.142;2023-01-25T07:03:32;100294.91;;;1.49;98.92
12215;BME280;6170;42.206;24.142;2023-01-25T07:05:59;100296.59;;;1.63;99.05
12215;BME280;6170;42.206;24.142;2023-01-25T07:08:26;100297.59;;;1.73;99.52
12215;BME280;6170;42.206;24.142;2023-01-25T07:10:54;100309.66;;;1.64;97.98
12215;BME280;6170;42.206;24.142;2023-01-25T07:13:22;100300.72;;;1.54;98.37
12215;BME280;6170;42.206;24.142;2023-01-25T07:15:54;100295.19;;;1.70;98.51
12215;BME280;6170;42.206;24.142;2023-01-25T07:18:21;100297.94;;;1.68;97.50
12215;BME280;6170;42.206;24.142;2023-01-25T07:20:49;100306.72;;;1.56;97.69
12215;BME280;6170;42.206;24.142;2023-01-25T07:23:16;100298.28;;;1.51;97.52
12215;BME280;6170;42.206;24.142;2023-01-25T07:25:44;100308.97;;;1.50;98.24
12215;BME280;6170;42.206;24.142;2023-01-25T07:28:11;100305.03;;;1.68;98.35
12215;BME280;6170;42.206;24.142;2023-01-25T07:30:39;100305.81;;;1.45;98.14
12215;BME280;6170;42.206;24.142;2023-01-25T07:33:06;100353.25;;;1.95;98.60
12215;BME280;6170;42.206;24.142;2023-01-25T07:35:33;100303.59;;;1.88;98.52
12215;BME280;6170;42.206;24.142;2023-01-25T07:38:02;100307.75;;;1.79;97.97
12215;BME280;6170;42.206;24.142;2023-01-25T07:40:29;100287.88;;;1.37;97.92
12215;BME280;6170;42.206;24.142;2023-01-25T07:42:56;100307.69;;;1.68;98.49
12215;BME280;6170;42.206;24.142;2023-01-25T07:45:24;100319.69;;;1.85;97.79
12215;BME280;6170;42.206;24.142;2023-01-25T07:47:55;100319.19;;;1.67;97.22
12215;BME280;6170;42.206;24.142;2023-01-25T07:50:23;100307.16;;;1.63;98.05
12215;BME280;6170;42.206;24.142;2023-01-25T07:52:50;100297.72;;;1.71;97.68
12215;BME280;6170;42.206;24.142;2023-01-25T07:55:18;100315.91;;;1.76;96.77
12215;BME280;6170;42.206;24.142;2023-01-25T07:57:45;100303.38;;;1.54;98.09
12215;BME280;6170;42.206;24.142;2023-01-25T08:00:13;100316.38;;;1.94;97.72
12215;BME280;6170;42.206;24.142;2023-01-25T08:02:40;100311.75;;;1.85;96.53
12215;BME280;6170;42.206;24.142;2023-01-25T08:05:08;100312.16;;;1.91;96.11
12215;BME280;6170;42.206;24.142;2023-01-25T08:07:35;100319.66;;;1.97;95.42
12215;BME280;6170;42.206;24.142;2023-01-25T08:10:02;100313.13;;;1.90;96.89
12215;BME280;6170;42.206;24.142;2023-01-25T08:12:33;100334.88;;;2.30;96.46
12215;BME280;6170;42.206;24.142;2023-01-25T08:15:00;100325.16;;;1.81;93.91
12215;BME280;6170;42.206;24.142;2023-01-25T08:17:27;100324.97;;;1.85;94.28
12215;BME280;6170;42.206;24.142;2023-01-25T08:19:57;100321.56;;;1.83;94.74
12215;BME280;6170;42.206;24.142;2023-01-25T08:22:24;100324.53;;;1.78;95.87
12215;BME280;6170;42.206;24.142;2023-01-25T08:24:51;100322.44;;;1.83;95.75
12215;BME280;6170;42.206;24.142;2023-01-25T08:27:18;100343.50;;;2.08;95.50
12215;BME280;6170;42.206;24.142;2023-01-25T08:29:47;100315.53;;;1.93;94.90
12215;BME280;6170;42.206;24.142;2023-01-25T08:32:15;100307.00;;;1.90;95.03
12215;BME280;6170;42.206;24.142;2023-01-25T08:34:42;100318.31;;;1.79;92.64
12215;BME280;6170;42.206;24.142;2023-01-25T08:37:09;100307.47;;;1.58;91.97
12215;BME280;6170;42.206;24.142;2023-01-25T08:39:37;100315.09;;;1.63;91.93
12215;BME280;6170;42.206;24.142;2023-01-25T08:42:04;100314.38;;;1.35;91.39
12215;BME280;6170;42.206;24.142;2023-01-25T08:44:31;100315.22;;;1.36;92.03
12215;BME280;6170;42.206;24.142;2023-01-25T08:47:00;100312.34;;;1.39;92.69
12215;BME280;6170;42.206;24.142;2023-01-25T08:49:27;100316.25;;;1.46;93.13
12215;BME280;6170;42.206;24.142;2023-01-25T08:51:55;100350.34;;;1.74;93.88
12215;BME280;6170;42.206;24.142;2023-01-25T08:54:22;100318.16;;;1.57;95.15
12215;BME280;6170;42.206;24.142;2023-01-25T08:56:49;100308.16;;;1.73;93.90
12215;BME280;6170;42.206;24.142;2023-01-25T08:59:16;100308.75;;;1.53;94.15
12215;BME280;6170;42.206;24.142;2023-01-25T09:01:43;100345.50;;;1.56;93.45
12215;BME280;6170;42.206;24.142;2023-01-25T09:04:11;100314.88;;;1.53;93.02
12215;BME280;6170;42.206;24.142;2023-01-25T09:06:38;100298.78;;;1.69;92.58
12215;BME280;6170;42.206;24.142;2023-01-25T09:09:05;100303.13;;;1.57;92.14
12215;BME280;6170;42.206;24.142;2023-01-25T09:11:34;100354.66;;;1.88;92.73
12215;BME280;6170;42.206;24.142;2023-01-25T09:14:02;100300.19;;;1.62;91.59
12215;BME280;6170;42.206;24.142;2023-01-25T09:16:29;100308.31;;;1.59;91.61
12215;BME280;6170;42.206;24.142;2023-01-25T09:18:57;100303.72;;;1.73;92.60
12215;BME280;6170;42.206;24.142;2023-01-25T09:21:26;100306.47;;;1.85;92.74
12215;BME280;6170;42.206;24.142;2023-01-25T09:23:54;100297.94;;;1.68;92.66
12215;BME280;6170;42.206;24.142;2023-01-25T09:26:21;100297.16;;;1.79;92.38
12215;BME280;6170;42.206;24.142;2023-01-25T09:28:50;100282.06;;;1.81;93.41
12215;BME280;6170;42.206;24.142;2023-01-25T09:31:19;100278.75;;;2.14;92.73
12215;BME280;6170;42.206;24.142;2023-01-25T09:33:47;100277.69;;;1.93;90.99
12215;BME280;6170;42.206;24.142;2023-01-25T09:36:14;100271.13;;;1.98;90.84
12215;BME280;6170;42.206;24.142;2023-01-25T09:38:42;100281.91;;;2.19;91.46
12215;BME280;6170;42.206;24.142;2023-01-25T09:41:36;100259.78;;;1.96;90.94
12215;BME280;6170;42.206;24.142;2023-01-25T09:44:26;100309.25;;;2.07;91.00
12215;BME280;6170;42.206;24.142;2023-01-25T09:46:58;100254.56;;;1.84;92.30
12215;BME280;6170;42.206;24.142;2023-01-25T09:49:57;100252.75;;;1.84;91.15
12215;BME280;6170;42.206;24.142;2023-01-25T09:52:47;100247.28;;;1.74;90.82
12215;BME280;6170;42.206;24.142;2023-01-25T09:55:23;100246.88;;;1.80;89.65
12215;BME280;6170;42.206;24.142;2023-01-25T09:57:52;100239.00;;;2.15;90.93
12215;BME280;6170;42.206;24.142;2023-01-25T10:00:25;100249.56;;;2.15;89.97
12215;BME280;6170;42.206;24.142;2023-01-25T10:02:54;100284.50;;;2.32;90.41
12215;BME280;6170;42.206;24.142;2023-01-25T10:05:27;100220.97;;;1.73;89.90
12215;BME280;6170;42.206;24.142;2023-01-25T10:07:59;100241.19;;;1.98;90.64
12215;BME280;6170;42.206;24.142;2023-01-25T10:10:33;100227.72;;;2.01;91.63
12215;BME280;6170;42.206;24.142;2023-01-25T10:13:01;100255.63;;;2.29;91.44
12215;BME280;6170;42.206;24.142;2023-01-25T10:15:32;100216.47;;;1.86;89.87
12215;BME280;6170;42.206;24.142;2023-01-25T10:18:14;100219.63;;;2.15;89.91
12215;BME280;6170;42.206;24.142;2023-01-25T10:20:47;100201.56;;;2.09;91.36
12215;BME280;6170;42.206;24.142;2023-01-25T10:23:32;100213.97;;;1.85;90.85
12215;BME280;6170;42.206;24.142;2023-01-25T10:26:08;100198.91;;;1.98;89.70
12215;BME280;6170;42.206;24.142;2023-01-25T10:28:43;100199.94;;;2.19;89.91
12215;BME280;6170;42.206;24.142;2023-01-25T10:31:16;100196.69;;;2.15;89.30
12215;BME280;6170;42.206;24.142;2023-01-25T10:33:46;100183.47;;;2.15;89.55
12215;BME280;6170;42.206;24.142;2023-01-25T10:36:15;100185.88;;;2.18;87.66
12215;BME280;6170;42.206;24.142;2023-01-25T10:38:43;100185.94;;;2.41;88.98
12215;BME280;6170;42.206;24.142;2023-01-25T10:41:17;100175.00;;;2.45;87.50
12215;BME280;6170;42.206;24.142;2023-01-25T10:43:45;100175.59;;;2.49;86.07
12215;BME280;6170;42.206;24.142;2023-01-25T10:46:33;100172.34;;;2.45;87.85
12215;BME280;6170;42.206;24.142;2023-01-25T10:49:01;100221.53;;;2.83;88.00
12215;BME280;6170;42.206;24.142;2023-01-25T10:51:38;100164.31;;;2.47;87.75
12215;BME280;6170;42.206;24.142;2023-01-25T10:54:13;100166.97;;;2.47;86.58
12215;BME280;6170;42.206;24.142;2023-01-25T10:56:43;100167.91;;;2.46;86.30
12215;BME280;6170;42.206;24.142;2023-01-25T10:59:17;100157.16;;;2.82;85.61
12215;BME280;6170;42.206;24.142;2023-01-25T11:01:46;100149.19;;;3.04;83.82
12215;BME280;6170;42.206;24.142;2023-01-25T11:04:32;100161.56;;;2.70;84.99
12215;BME280;6170;42.206;24.142;2023-01-25T11:07:01;100150.13;;;2.70;86.09
12215;BME280;6170;42.206;24.142;2023-01-25T11:09:34;100142.19;;;2.59;85.92
12215;BME280;6170;42.206;24.142;2023-01-25T11:12:12;100145.34;;;2.86;85.23
12215;BME280;6170;42.206;24.142;2023-01-25T11:14:41;100136.56;;;2.63;85.00
12215;BME280;6170;42.206;24.142;2023-01-25T11:17:22;100128.13;;;2.58;85.43
12215;BME280;6170;42.206;24.142;2023-01-25T11:20:03;100150.75;;;2.85;84.94
12215;BME280;6170;42.206;24.142;2023-01-25T11:22:32;100134.03;;;2.51;86.02
12215;BME280;6170;42.206;24.142;2023-01-25T11:25:24;100120.78;;;2.51;83.74
12215;BME280;6170;42.206;24.142;2023-01-25T11:28:09;100124.13;;;2.53;84.77
12215;BME280;6170;42.206;24.142;2023-01-25T11:30:36;100118.00;;;2.52;86.61
12215;BME280;6170;42.206;24.142;2023-01-25T11:33:08;100110.44;;;2.70;85.17
12215;BME280;6170;42.206;24.142;2023-01-25T11:35:42;100101.78;;;2.68;85.19
12215;BME280;6170;42.206;24.142;2023-01-25T11:38:16;100084.31;;;2.88;84.52
12215;BME280;6170;42.206;24.142;2023-01-25T11:40:48;100085.16;;;2.88;83.70
12215;BME280;6170;42.206;24.142;2023-01-25T11:43:41;100106.84;;;2.82;83.05
12215;BME280;6170;42.206;24.142;2023-01-25T11:46:24;100095.66;;;2.79;84.63
12215;BME280;6170;42.206;24.142;2023-01-25T11:49:17;100093.38;;;2.74;83.76
12215;BME280;6170;42.206;24.142;2023-01-25T11:51:54;100079.88;;;2.99;83.96
12215;BME280;6170;42.206;24.142;2023-01-25T11:54:33;100076.28;;;2.89;83.73
12215;BME280;6170;42.206;24.142;2023-01-25T11:57:11;100082.63;;;3.09;82.55
12215;BME280;6170;42.206;24.142;2023-01-25T11:59:55;100076.75;;;2.94;83.56
12215;BME280;6170;42.206;24.142;2023-01-25T12:02:53;100076.41;;;2.77;84.63
12215;BME280;6170;42.206;24.142;2023-01-25T12:05:35;100119.72;;;3.09;85.17
12215;BME280;6170;42.206;24.142;2023-01-25T12:08:19;100092.13;;;3.11;86.54
12215;BME280;6170;42.206;24.142;2023-01-25T12:10:55;100068.69;;;2.96;84.28
12215;BME280;6170;42.206;24.142;2023-01-25T12:13:33;100067.25;;;2.81;84.33
12215;BME280;6170;42.206;24.142;2023-01-25T12:16:17;100105.25;;;3.02;83.43
12215;BME280;6170;42.206;24.142;2023-01-25T12:19:01;100053.78;;;2.61;82.36
12215;BME280;6170;42.206;24.142;2023-01-25T12:21:44;100055.50;;;2.51;83.12
12215;BME280;6170;42.206;24.142;2023-01-25T12:24:29;100053.06;;;2.70;83.64
12215;BME280;6170;42.206;24.142;2023-01-25T12:27:12;100050.69;;;2.56;84.75
12215;BME280;6170;42.206;24.142;2023-01-25T12:29:47;100054.28;;;2.44;84.49
12215;BME280;6170;42.206;24.142;2023-01-25T12:32:20;100051.16;;;2.50;84.99
12215;BME280;6170;42.206;24.142;2023-01-25T12:34:52;100047.19;;;2.67;86.63
12215;BME280;6170;42.206;24.142;2023-01-25T12:37:29;100046.09;;;2.81;84.29
12215;BME280;6170;42.206;24.142;2023-01-25T12:40:02;100009.91;;;2.59;84.55
12215;BME280;6170;42.206;24.142;2023-01-25T12:42:33;100035.59;;;2.79;83.36
12215;BME280;6170;42.206;24.142;2023-01-25T12:45:03;100088.38;;;3.25;83.47
12215;BME280;6170;42.206;24.142;2023-01-25T12:47:37;100034.06;;;2.54;84.17
12215;BME280;6170;42.206;24.142;2023-01-25T12:50:13;100066.78;;;2.64;84.81
12215;BME280;6170;42.206;24.142;2023-01-25T12:52:45;100034.78;;;2.67;85.73
12215;BME280;6170;42.206;24.142;2023-01-25T12:55:14;100038.25;;;2.79;83.87
12215;BME280;6170;42.206;24.142;2023-01-25T12:57:47;100031.63;;;2.85;83.15
12215;BME280;6170;42.206;24.142;2023-01-25T13:00:21;100032.41;;;2.64;83.31
12215;BME280;6170;42.206;24.142;2023-01-25T13:03:03;100013.75;;;2.33;84.15
12215;BME280;6170;42.206;24.142;2023-01-25T13:05:38;100032.97;;;2.35;83.76
12215;BME280;6170;42.206;24.142;2023-01-25T13:08:16;100027.25;;;2.30;84.46
12215;BME280;6170;42.206;24.142;2023-01-25T13:10:49;100024.31;;;2.44;83.11
12215;BME280;6170;42.206;24.142;2023-01-25T13:13:21;100017.47;;;2.63;82.78
12215;BME280;6170;42.206;24.142;2023-01-25T13:15:50;100020.84;;;2.65;82.65